sensor_id;sensor_type;location;lat;lon;timestamp;P1;durP1;ratioP1;P2;durP2;ratioP2
10269;SDS011;70826;50.930;5.334;2023-07-13T00:02:09;2.55;;;1.40;;
10269;SDS011;70826;50.930;5.334;2023-07-13T00:04:39;1.88;;;1.38;;
10269;SDS011;70826;50.930;5.334;2023-07-13T00:07:07;1.60;;;1.23;;
10269;SDS011;70826;50.930;5.334;2023-07-13T00:09:33;2.58;;;1.48;;
10269;SDS011;70826;50.930;5.334;2023-07-13T00:12:02;2.47;;;1.40;;
10269;SDS011;70826;50.930;5.334;2023-07-13T00:14:28;2.85;;;1.33;;
10269;SDS011;70826;50.930;5.334;2023-07-13T00:16:59;2.15;;;1.50;;
10269;SDS011;70826;50.930;5.334;2023-07-13T00:19:25;1.77;;;1.38;;
10269;SDS011;70826;50.930;5.334;2023-07-13T00:21:51;1.80;;;1.35;;
10269;SDS011;70826;50.930;5.334;2023-07-13T00:24:20;1.77;;;1.40;;
10269;SDS011;70826;50.930;5.334;2023-07-13T00:26:48;2.97;;;1.40;;
10269;SDS011;70826;50.930;5.334;2023-07-13T00:29:19;2.88;;;1.42;;
10269;SDS011;70826;50.930;5.334;2023-07-13T00:31:47;2.97;;;1.50;;
10269;SDS011;70826;50.930;5.334;2023-07-13T00:34:17;2.13;;;1.30;;
10269;SDS011;70826;50.930;5.334;2023-07-13T00:36:43;1.85;;;1.40;;
10269;SDS011;70826;50.930;5.334;2023-07-13T00:39:13;2.42;;;1.50;;
10269;SDS011;70826;50.930;5.334;2023-07-13T00:41:39;2.15;;;1.35;;
10269;SDS011;70826;50.930;5.334;2023-07-13T00:44:08;2.53;;;1.45;;
10269;SDS011;70826;50.930;5.334;2023-07-13T00:46:38;2.60;;;1.60;;
10269;SDS011;70826;50.930;5.334;2023-07-13T00:49:07;2.42;;;1.40;;
10269;SDS011;70826;50.930;5.334;2023-07-13T00:54:15;2.45;;;1.50;;
10269;SDS011;70826;50.930;5.334;2023-07-13T00:56:44;2.38;;;1.73;;
10269;SDS011;70826;50.930;5.334;2023-07-13T00:59:12;2.55;;;1.40;;
10269;SDS011;70826;50.930;5.334;2023-07-13T01:01:42;2.38;;;1.48;;
10269;SDS011;70826;50.930;5.334;2023-07-13T01:04:10;2.88;;;1.70;;
10269;SDS011;70826;50.930;5.334;2023-07-13T01:06:36;2.25;;;1.33;;
10269;SDS011;70826;50.930;5.334;2023-07-13T01:09:09;2.22;;;1.40;;
10269;SDS011;70826;50.930;5.334;2023-07-13T01:11:35;2.08;;;1.50;;
10269;SDS011;70826;50.930;5.334;2023-07-13T01:14:06;2.35;;;1.35;;
10269;SDS011;70826;50.930;5.334;2023-07-13T01:16:38;2.80;;;1.63;;
10269;SDS011;70826;50.930;5.334;2023-07-13T01:19:53;2.53;;;1.58;;
10269;SDS011;70826;50.930;5.334;2023-07-13T01:22:01;2.38;;;1.48;;
10269;SDS011;70826;50.930;5.334;2023-07-13T01:24:28;2.53;;;1.50;;
10269;SDS011;70826;50.930;5.334;2023-07-13T01:26:54;3.05;;;1.48;;
10269;SDS011;70826;50.930;5.334;2023-07-13T01:29:20;2.55;;;1.42;;
10269;SDS011;70826;50.930;5.334;2023-07-13T01:31:49;2.85;;;1.52;;
10269;SDS011;70826;50.930;5.334;2023-07-13T01:34:17;3.10;;;1.50;;
10269;SDS011;70826;50.930;5.334;2023-07-13T01:36:43;3.35;;;1.45;;
10269;SDS011;70826;50.930;5.334;2023-07-13T01:39:12;3.05;;;1.50;;
10269;SDS011;70826;50.930;5.334;2023-07-13T01:41:37;3.03;;;1.67;;
10269;SDS011;70826;50.930;5.334;2023-07-13T01:44:04;3.80;;;1.48;;
10269;SDS011;70826;50.930;5.334;2023-07-13T01:46:29;3.00;;;1.40;;
10269;SDS011;70826;50.930;5.334;2023-07-13T01:49:01;2.47;;;1.55;;
10269;SDS011;70826;50.930;5.334;2023-07-13T01:51:31;2.53;;;1.58;;
10269;SDS011;70826;50.930;5.334;2023-07-13T01:53:57;2.47;;;1.40;;
10269;SDS011;70826;50.930;5.334;2023-07-13T01:56:26;2.63;;;1.60;;
10269;SDS011;70826;50.930;5.334;2023-07-13T01:58:51;4.13;;;1.60;;
10269;SDS011;70826;50.930;5.334;2023-07-13T02:01:17;3.38;;;1.60;;
10269;SDS011;70826;50.930;5.334;2023-07-13T02:03:46;3.13;;;1.45;;
10269;SDS011;70826;50.930;5.334;2023-07-13T02:06:12;3.30;;;1.60;;
10269;SDS011;70826;50.930;5.334;2023-07-13T02:08:40;2.95;;;1.42;;
10269;SDS011;70826;50.930;5.334;2023-07-13T02:11:07;4.68;;;1.60;;
10269;SDS011;70826;50.930;5.334;2023-07-13T02:13:34;2.45;;;1.40;;
10269;SDS011;70826;50.930;5.334;2023-07-13T02:16:00;2.10;;;1.40;;
10269;SDS011;70826;50.930;5.334;2023-07-13T02:18:28;2.95;;;1.67;;
10269;SDS011;70826;50.930;5.334;2023-07-13T02:20:54;1.75;;;1.40;;
10269;SDS011;70826;50.930;5.334;2023-07-13T02:23:20;2.15;;;1.50;;
10269;SDS011;70826;50.930;5.334;2023-07-13T02:25:45;2.20;;;1.50;;
10269;SDS011;70826;50.930;5.334;2023-07-13T02:28:11;2.80;;;1.70;;
10269;SDS011;70826;50.930;5.334;2023-07-13T02:30:37;4.43;;;1.58;;
10269;SDS011;70826;50.930;5.334;2023-07-13T02:33:05;2.83;;;1.60;;
10269;SDS011;70826;50.930;5.334;2023-07-13T02:35:31;4.00;;;1.60;;
10269;SDS011;70826;50.930;5.334;2023-07-13T02:37:57;4.70;;;1.70;;
10269;SDS011;70826;50.930;5.334;2023-07-13T02:40:23;3.08;;;1.70;;
10269;SDS011;70826;50.930;5.334;2023-07-13T02:42:53;2.20;;;1.52;;
10269;SDS011;70826;50.930;5.334;2023-07-13T02:45:22;3.85;;;1.70;;
10269;SDS011;70826;50.930;5.334;2023-07-13T02:47:52;2.42;;;1.65;;
10269;SDS011;70826;50.930;5.334;2023-07-13T02:50:19;2.72;;;1.70;;
10269;SDS011;70826;50.930;5.334;2023-07-13T02:52:47;3.15;;;1.58;;
10269;SDS011;70826;50.930;5.334;2023-07-13T02:55:15;2.92;;;1.60;;
10269;SDS011;70826;50.930;5.334;2023-07-13T02:57:42;2.60;;;1.60;;
10269;SDS011;70826;50.930;5.334;2023-07-13T03:00:07;2.65;;;1.67;;
10269;SDS011;70826;50.930;5.334;2023-07-13T03:02:34;1.75;;;1.40;;
10269;SDS011;70826;50.930;5.334;2023-07-13T03:05:02;2.70;;;1.52;;
10269;SDS011;70826;50.930;5.334;2023-07-13T03:07:30;3.20;;;1.50;;
10269;SDS011;70826;50.930;5.334;2023-07-13T03:09:56;2.53;;;1.60;;
10269;SDS011;70826;50.930;5.334;2023-07-13T03:12:23;4.68;;;1.95;;
10269;SDS011;70826;50.930;5.334;2023-07-13T03:14:50;1.85;;;1.42;;
10269;SDS011;70826;50.930;5.334;2023-07-13T03:17:23;2.22;;;1.58;;
10269;SDS011;70826;50.930;5.334;2023-07-13T03:19:49;3.45;;;1.67;;
10269;SDS011;70826;50.930;5.334;2023-07-13T03:22:19;4.00;;;1.90;;
10269;SDS011;70826;50.930;5.334;2023-07-13T03:24:44;3.42;;;1.60;;
10269;SDS011;70826;50.930;5.334;2023-07-13T03:27:13;3.58;;;1.63;;
10269;SDS011;70826;50.930;5.334;2023-07-13T03:29:40;3.08;;;1.60;;
10269;SDS011;70826;50.930;5.334;2023-07-13T03:32:06;3.00;;;1.70;;
10269;SDS011;70826;50.930;5.334;2023-07-13T03:34:33;2.55;;;1.55;;
10269;SDS011;70826;50.930;5.334;2023-07-13T03:36:58;5.13;;;1.77;;
10269;SDS011;70826;50.930;5.334;2023-07-13T03:39:24;3.67;;;1.85;;
10269;SDS011;70826;50.930;5.334;2023-07-13T03:41:50;3.38;;;1.73;;
10269;SDS011;70826;50.930;5.334;2023-07-13T03:44:18;4.75;;;1.80;;
10269;SDS011;70826;50.930;5.334;2023-07-13T03:46:44;3.65;;;1.70;;
10269;SDS011;70826;50.930;5.334;2023-07-13T03:49:11;2.85;;;1.85;;
10269;SDS011;70826;50.930;5.334;2023-07-13T03:51:37;3.42;;;1.60;;
10269;SDS011;70826;50.930;5.334;2023-07-13T03:54:07;3.90;;;1.90;;
10269;SDS011;70826;50.930;5.334;2023-07-13T03:56:33;3.17;;;1.77;;
10269;SDS011;70826;50.930;5.334;2023-07-13T03:58:59;3.03;;;1.80;;
10269;SDS011;70826;50.930;5.334;2023-07-13T04:01:27;3.33;;;1.70;;
10269;SDS011;70826;50.930;5.334;2023-07-13T04:03:53;2.70;;;1.80;;
10269;SDS011;70826;50.930;5.334;2023-07-13T04:06:20;3.60;;;1.80;;
10269;SDS011;70826;50.930;5.334;2023-07-13T04:08:55;4.80;;;1.80;;
10269;SDS011;70826;50.930;5.334;2023-07-13T04:11:29;3.90;;;1.80;;
10269;SDS011;70826;50.930;5.334;2023-07-13T04:13:58;3.05;;;1.80;;
10269;SDS011;70826;50.930;5.334;2023-07-13T04:16:24;5.18;;;2.10;;
10269;SDS011;70826;50.930;5.334;2023-07-13T04:18:50;3.00;;;1.85;;
10269;SDS011;70826;50.930;5.334;2023-07-13T04:21:24;3.78;;;1.70;;
10269;SDS011;70826;50.930;5.334;2023-07-13T04:23:52;4.22;;;2.13;;
10269;SDS011;70826;50.930;5.334;2023-07-13T04:26:21;4.60;;;2.00;;
10269;SDS011;70826;50.930;5.334;2023-07-13T04:28:47;4.22;;;1.88;;
10269;SDS011;70826;50.930;5.334;2023-07-13T04:31:13;3.13;;;1.73;;
10269;SDS011;70826;50.930;5.334;2023-07-13T04:33:39;2.88;;;2.00;;
10269;SDS011;70826;50.930;5.334;2023-07-13T04:36:10;4.72;;;2.13;;
10269;SDS011;70826;50.930;5.334;2023-07-13T04:38:37;4.68;;;2.05;;
10269;SDS011;70826;50.930;5.334;2023-07-13T04:41:07;6.05;;;2.25;;
10269;SDS011;70826;50.930;5.334;2023-07-13T04:43:36;3.83;;;2.10;;
10269;SDS011;70826;50.930;5.334;2023-07-13T04:46:08;2.95;;;1.95;;
10269;SDS011;70826;50.930;5.334;2023-07-13T04:48:39;3.42;;;1.95;;
10269;SDS011;70826;50.930;5.334;2023-07-13T04:51:06;3.47;;;2.17;;
10269;SDS011;70826;50.930;5.334;2023-07-13T04:53:32;3.53;;;1.95;;
10269;SDS011;70826;50.930;5.334;2023-07-13T04:55:59;3.78;;;2.13;;
10269;SDS011;70826;50.930;5.334;2023-07-13T04:58:25;4.47;;;2.10;;
10269;SDS011;70826;50.930;5.334;2023-07-13T05:01:00;4.75;;;2.13;;
10269;SDS011;70826;50.930;5.334;2023-07-13T05:03:28;4.20;;;2.25;;
10269;SDS011;70826;50.930;5.334;2023-07-13T05:05:57;3.97;;;2.05;;
10269;SDS011;70826;50.930;5.334;2023-07-13T05:08:28;4.05;;;2.40;;
10269;SDS011;70826;50.930;5.334;2023-07-13T05:10:56;3.15;;;2.20;;
10269;SDS011;70826;50.930;5.334;2023-07-13T05:13:27;4.35;;;2.08;;
10269;SDS011;70826;50.930;5.334;2023-07-13T05:15:58;3.53;;;2.00;;
10269;SDS011;70826;50.930;5.334;2023-07-13T05:18:28;4.65;;;2.22;;
10269;SDS011;70826;50.930;5.334;2023-07-13T05:21:01;5.80;;;2.28;;
10269;SDS011;70826;50.930;5.334;2023-07-13T05:23:32;3.70;;;2.30;;
10269;SDS011;70826;50.930;5.334;2023-07-13T05:26:03;4.32;;;2.20;;
10269;SDS011;70826;50.930;5.334;2023-07-13T05:28:30;4.38;;;2.00;;
10269;SDS011;70826;50.930;5.334;2023-07-13T05:30:58;3.92;;;2.10;;
10269;SDS011;70826;50.930;5.334;2023-07-13T05:33:26;5.78;;;2.67;;
10269;SDS011;70826;50.930;5.334;2023-07-13T05:35:55;2.45;;;1.70;;
10269;SDS011;70826;50.930;5.334;2023-07-13T05:38:21;4.28;;;2.15;;
10269;SDS011;70826;50.930;5.334;2023-07-13T05:40:48;3.97;;;2.10;;
10269;SDS011;70826;50.930;5.334;2023-07-13T05:43:14;4.38;;;2.22;;
10269;SDS011;70826;50.930;5.334;2023-07-13T05:45:40;5.63;;;2.00;;
10269;SDS011;70826;50.930;5.334;2023-07-13T05:48:06;4.28;;;2.20;;
10269;SDS011;70826;50.930;5.334;2023-07-13T05:50:32;5.03;;;2.20;;
10269;SDS011;70826;50.930;5.334;2023-07-13T05:52:58;3.17;;;2.00;;
10269;SDS011;70826;50.930;5.334;2023-07-13T05:55:28;3.60;;;1.98;;
10269;SDS011;70826;50.930;5.334;2023-07-13T05:57:55;3.55;;;2.10;;
10269;SDS011;70826;50.930;5.334;2023-07-13T06:00:23;4.35;;;2.00;;
10269;SDS011;70826;50.930;5.334;2023-07-13T06:02:49;5.25;;;2.17;;
10269;SDS011;70826;50.930;5.334;2023-07-13T06:05:15;4.13;;;1.90;;
10269;SDS011;70826;50.930;5.334;2023-07-13T06:07:41;4.18;;;2.40;;
10269;SDS011;70826;50.930;5.334;2023-07-13T06:10:10;3.95;;;1.90;;
10269;SDS011;70826;50.930;5.334;2023-07-13T06:12:35;3.53;;;1.83;;
10269;SDS011;70826;50.930;5.334;2023-07-13T06:15:02;4.10;;;2.15;;
10269;SDS011;70826;50.930;5.334;2023-07-13T06:17:33;4.80;;;2.25;;
10269;SDS011;70826;50.930;5.334;2023-07-13T06:20:03;3.90;;;2.05;;
10269;SDS011;70826;50.930;5.334;2023-07-13T06:22:29;5.40;;;2.20;;
10269;SDS011;70826;50.930;5.334;2023-07-13T06:25:02;5.13;;;2.30;;
10269;SDS011;70826;50.930;5.334;2023-07-13T06:27:30;4.47;;;2.17;;
10269;SDS011;70826;50.930;5.334;2023-07-13T06:29:59;3.53;;;2.13;;
10269;SDS011;70826;50.930;5.334;2023-07-13T06:32:24;4.80;;;2.10;;
10269;SDS011;70826;50.930;5.334;2023-07-13T06:34:54;5.57;;;2.10;;
10269;SDS011;70826;50.930;5.334;2023-07-13T06:37:20;3.60;;;2.10;;
10269;SDS011;70826;50.930;5.334;2023-07-13T06:39:49;3.78;;;2.08;;
10269;SDS011;70826;50.930;5.334;2023-07-13T06:42:15;4.90;;;2.20;;
10269;SDS011;70826;50.930;5.334;2023-07-13T06:44:41;4.25;;;2.13;;
10269;SDS011;70826;50.930;5.334;2023-07-13T06:47:08;4.72;;;2.17;;
10269;SDS011;70826;50.930;5.334;2023-07-13T06:49:33;5.03;;;2.10;;
10269;SDS011;70826;50.930;5.334;2023-07-13T06:52:01;6.32;;;2.25;;
10269;SDS011;70826;50.930;5.334;2023-07-13T06:54:31;5.63;;;2.50;;
10269;SDS011;70826;50.930;5.334;2023-07-13T06:56:57;10.25;;;2.53;;
10269;SDS011;70826;50.930;5.334;2023-07-13T06:59:28;13.73;;;3.17;;
10269;SDS011;70826;50.930;5.334;2023-07-13T07:01:53;17.45;;;3.13;;
10269;SDS011;70826;50.930;5.334;2023-07-13T07:04:19;23.48;;;9.98;;
10269;SDS011;70826;50.930;5.334;2023-07-13T07:06:44;17.60;;;9.38;;
10269;SDS011;70826;50.930;5.334;2023-07-13T07:09:16;25.88;;;20.92;;
10269;SDS011;70826;50.930;5.334;2023-07-13T07:11:42;31.33;;;24.15;;
10269;SDS011;70826;50.930;5.334;2023-07-13T07:14:10;34.42;;;26.60;;
10269;SDS011;70826;50.930;5.334;2023-07-13T07:16:36;33.63;;;23.70;;
10269;SDS011;70826;50.930;5.334;2023-07-13T07:19:04;29.23;;;20.50;;
10269;SDS011;70826;50.930;5.334;2023-07-13T07:21:30;25.38;;;17.42;;
10269;SDS011;70826;50.930;5.334;2023-07-13T07:23:56;30.08;;;12.73;;
10269;SDS011;70826;50.930;5.334;2023-07-13T07:26:28;22.95;;;11.60;;
10269;SDS011;70826;50.930;5.334;2023-07-13T07:28:56;20.95;;;9.15;;
10269;SDS011;70826;50.930;5.334;2023-07-13T07:31:24;21.90;;;9.80;;
10269;SDS011;70826;50.930;5.334;2023-07-13T07:33:52;28.38;;;9.15;;
10269;SDS011;70826;50.930;5.334;2023-07-13T07:36:20;21.90;;;9.02;;
10269;SDS011;70826;50.930;5.334;2023-07-13T07:38:46;17.80;;;8.63;;
10269;SDS011;70826;50.930;5.334;2023-07-13T07:41:12;21.38;;;8.27;;
10269;SDS011;70826;50.930;5.334;2023-07-13T07:43:39;17.02;;;7.30;;
10269;SDS011;70826;50.930;5.334;2023-07-13T07:46:06;27.50;;;7.22;;
10269;SDS011;70826;50.930;5.334;2023-07-13T07:48:33;11.93;;;6.25;;
10269;SDS011;70826;50.930;5.334;2023-07-13T07:50:58;14.05;;;5.70;;
10269;SDS011;70826;50.930;5.334;2023-07-13T07:53:24;15.23;;;5.55;;
10269;SDS011;70826;50.930;5.334;2023-07-13T07:55:50;16.60;;;5.45;;
10269;SDS011;70826;50.930;5.334;2023-07-13T07:58:16;12.50;;;5.47;;
10269;SDS011;70826;50.930;5.334;2023-07-13T08:00:42;10.00;;;5.45;;
10269;SDS011;70826;50.930;5.334;2023-07-13T08:03:10;10.93;;;5.25;;
10269;SDS011;70826;50.930;5.334;2023-07-13T08:05:37;12.23;;;5.10;;
10269;SDS011;70826;50.930;5.334;2023-07-13T08:08:03;7.97;;;5.28;;
10269;SDS011;70826;50.930;5.334;2023-07-13T08:10:34;11.55;;;5.03;;
10269;SDS011;70826;50.930;5.334;2023-07-13T08:13:01;16.25;;;4.80;;
10269;SDS011;70826;50.930;5.334;2023-07-13T08:15:30;15.52;;;4.70;;
10269;SDS011;70826;50.930;5.334;2023-07-13T08:17:56;11.68;;;4.40;;
10269;SDS011;70826;50.930;5.334;2023-07-13T08:20:24;12.15;;;4.18;;
10269;SDS011;70826;50.930;5.334;2023-07-13T08:22:50;12.85;;;4.22;;
10269;SDS011;70826;50.930;5.334;2023-07-13T08:25:16;9.73;;;4.10;;
10269;SDS011;70826;50.930;5.334;2023-07-13T08:27:42;10.65;;;3.88;;
10269;SDS011;70826;50.930;5.334;2023-07-13T08:30:10;12.45;;;3.92;;
10269;SDS011;70826;50.930;5.334;2023-07-13T08:32:38;8.60;;;3.92;;
10269;SDS011;70826;50.930;5.334;2023-07-13T08:35:06;9.20;;;3.75;;
10269;SDS011;70826;50.930;5.334;2023-07-13T08:37:33;10.25;;;3.70;;
10269;SDS011;70826;50.930;5.334;2023-07-13T08:39:59;7.60;;;3.55;;
10269;SDS011;70826;50.930;5.334;2023-07-13T08:45:13;5.50;;;3.30;;
10269;SDS011;70826;50.930;5.334;2023-07-13T08:47:42;4.95;;;3.40;;
10269;SDS011;70826;50.930;5.334;2023-07-13T08:50:17;5.20;;;3.20;;
10269;SDS011;70826;50.930;5.334;2023-07-13T08:52:46;6.10;;;3.28;;
10269;SDS011;70826;50.930;5.334;2023-07-13T08:55:21;7.28;;;3.10;;
10269;SDS011;70826;50.930;5.334;2023-07-13T08:57:54;6.10;;;3.15;;
10269;SDS011;70826;50.930;5.334;2023-07-13T09:00:44;5.70;;;3.03;;
10269;SDS011;70826;50.930;5.334;2023-07-13T09:03:23;5.63;;;3.40;;
10269;SDS011;70826;50.930;5.334;2023-07-13T09:05:54;3.83;;;2.60;;
10269;SDS011;70826;50.930;5.334;2023-07-13T09:08:44;4.97;;;2.97;;
10269;SDS011;70826;50.930;5.334;2023-07-13T09:14:04;3.47;;;2.75;;
10269;SDS011;70826;50.930;5.334;2023-07-13T09:16:42;3.85;;;2.80;;
10269;SDS011;70826;50.930;5.334;2023-07-13T09:19:13;3.95;;;2.65;;
10269;SDS011;70826;50.930;5.334;2023-07-13T09:21:48;4.63;;;2.85;;
10269;SDS011;70826;50.930;5.334;2023-07-13T09:26:41;3.83;;;2.55;;
10269;SDS011;70826;50.930;5.334;2023-07-13T09:29:24;5.03;;;2.60;;
10269;SDS011;70826;50.930;5.334;2023-07-13T09:31:54;4.18;;;2.72;;
10269;SDS011;70826;50.930;5.334;2023-07-13T09:34:28;3.70;;;2.45;;
10269;SDS011;70826;50.930;5.334;2023-07-13T09:36:55;5.60;;;2.70;;
10269;SDS011;70826;50.930;5.334;2023-07-13T09:39:27;3.78;;;2.47;;
10269;SDS011;70826;50.930;5.334;2023-07-13T09:42:00;3.50;;;2.40;;
10269;SDS011;70826;50.930;5.334;2023-07-13T09:44:39;4.85;;;2.75;;
10269;SDS011;70826;50.930;5.334;2023-07-13T09:47:25;6.28;;;2.80;;
10269;SDS011;70826;50.930;5.334;2023-07-13T09:49:56;3.78;;;2.45;;
10269;SDS011;70826;50.930;5.334;2023-07-13T09:52:27;4.55;;;2.70;;
10269;SDS011;70826;50.930;5.334;2023-07-13T09:57:56;3.72;;;2.60;;
10269;SDS011;70826;50.930;5.334;2023-07-13T10:00:30;3.00;;;2.28;;
10269;SDS011;70826;50.930;5.334;2023-07-13T10:03:00;3.75;;;2.45;;
10269;SDS011;70826;50.930;5.334;2023-07-13T10:05:28;2.60;;;2.40;;
10269;SDS011;70826;50.930;5.334;2023-07-13T10:08:16;3.00;;;2.33;;
10269;SDS011;70826;50.930;5.334;2023-07-13T10:10:46;3.90;;;2.30;;
10269;SDS011;70826;50.930;5.334;2023-07-13T10:13:31;4.72;;;2.63;;
10269;SDS011;70826;50.930;5.334;2023-07-13T10:16:05;3.75;;;2.47;;
10269;SDS011;70826;50.930;5.334;2023-07-13T10:18:42;3.08;;;2.20;;
10269;SDS011;70826;50.930;5.334;2023-07-13T10:21:15;5.45;;;2.28;;
10269;SDS011;70826;50.930;5.334;2023-07-13T10:23:45;3.10;;;2.33;;
10269;SDS011;70826;50.930;5.334;2023-07-13T10:26:26;2.65;;;2.20;;
10269;SDS011;70826;50.930;5.334;2023-07-13T10:28:57;4.75;;;2.67;;
10269;SDS011;70826;50.930;5.334;2023-07-13T10:31:27;2.88;;;2.30;;
10269;SDS011;70826;50.930;5.334;2023-07-13T10:33:56;3.22;;;2.40;;
10269;SDS011;70826;50.930;5.334;2023-07-13T10:36:31;2.97;;;2.30;;
10269;SDS011;70826;50.930;5.334;2023-07-13T10:39:04;3.38;;;2.17;;
10269;SDS011;70826;50.930;5.334;2023-07-13T10:41:33;3.78;;;2.20;;
10269;SDS011;70826;50.930;5.334;2023-07-13T10:44:01;3.35;;;2.13;;
10269;SDS011;70826;50.930;5.334;2023-07-13T10:46:29;3.40;;;2.20;;
10269;SDS011;70826;50.930;5.334;2023-07-13T10:49:00;3.67;;;2.10;;
10269;SDS011;70826;50.930;5.334;2023-07-13T10:51:30;3.08;;;2.30;;
10269;SDS011;70826;50.930;5.334;2023-07-13T10:54:10;2.72;;;2.00;;
10269;SDS011;70826;50.930;5.334;2023-07-13T10:56:45;2.75;;;2.05;;
10269;SDS011;70826;50.930;5.334;2023-07-13T10:59:18;2.92;;;2.10;;
10269;SDS011;70826;50.930;5.334;2023-07-13T11:04:28;2.70;;;2.00;;
10269;SDS011;70826;50.930;5.334;2023-07-13T11:07:10;3.63;;;2.10;;
10269;SDS011;70826;50.930;5.334;2023-07-13T11:09:43;3.65;;;2.22;;
10269;SDS011;70826;50.930;5.334;2023-07-13T11:27:52;2.70;;;2.20;;
10269;SDS011;70826;50.930;5.334;2023-07-13T11:35:59;2.80;;;2.20;;
10269;SDS011;70826;50.930;5.334;2023-07-13T11:38:33;3.35;;;2.10;;
10269;SDS011;70826;50.930;5.334;2023-07-13T11:41:20;2.17;;;1.98;;
10269;SDS011;70826;50.930;5.334;2023-07-13T11:43:54;2.42;;;2.13;;
10269;SDS011;70826;50.930;5.334;2023-07-13T11:46:35;2.50;;;2.30;;
10269;SDS011;70826;50.930;5.334;2023-07-13T11:49:05;3.22;;;2.42;;
10269;SDS011;70826;50.930;5.334;2023-07-13T11:51:33;3.33;;;2.58;;
10269;SDS011;70826;50.930;5.334;2023-07-13T11:54:05;3.28;;;2.60;;
10269;SDS011;70826;50.930;5.334;2023-07-13T11:56:39;2.97;;;2.67;;
10269;SDS011;70826;50.930;5.334;2023-07-13T11:59:11;2.83;;;2.50;;
10269;SDS011;70826;50.930;5.334;2023-07-13T12:01:44;4.05;;;3.15;;
10269;SDS011;70826;50.930;5.334;2023-07-13T12:04:22;4.95;;;3.50;;
10269;SDS011;70826;50.930;5.334;2023-07-13T12:06:57;4.57;;;3.35;;
10269;SDS011;70826;50.930;5.334;2023-07-13T12:09:42;4.53;;;3.70;;
10269;SDS011;70826;50.930;5.334;2023-07-13T12:12:15;4.13;;;3.72;;
10269;SDS011;70826;50.930;5.334;2023-07-13T12:14:51;5.28;;;4.22;;
10269;SDS011;70826;50.930;5.334;2023-07-13T12:17:21;5.78;;;4.00;;
10269;SDS011;70826;50.930;5.334;2023-07-13T12:19:52;6.03;;;4.15;;
10269;SDS011;70826;50.930;5.334;2023-07-13T12:22:19;6.13;;;4.28;;
10269;SDS011;70826;50.930;5.334;2023-07-13T12:24:48;6.70;;;4.65;;
10269;SDS011;70826;50.930;5.334;2023-07-13T12:27:24;5.93;;;4.60;;
10269;SDS011;70826;50.930;5.334;2023-07-13T12:30:01;6.20;;;4.90;;
10269;SDS011;70826;50.930;5.334;2023-07-13T12:32:30;5.85;;;4.63;;
10269;SDS011;70826;50.930;5.334;2023-07-13T12:35:06;6.60;;;4.82;;
10269;SDS011;70826;50.930;5.334;2023-07-13T12:37:44;6.82;;;5.43;;
10269;SDS011;70826;50.930;5.334;2023-07-13T12:40:21;6.50;;;5.15;;
10269;SDS011;70826;50.930;5.334;2023-07-13T12:42:58;6.97;;;5.18;;
10269;SDS011;70826;50.930;5.334;2023-07-13T12:45:29;6.95;;;5.35;;
10269;SDS011;70826;50.930;5.334;2023-07-13T12:48:19;7.15;;;5.32;;
10269;SDS011;70826;50.930;5.334;2023-07-13T12:50:46;7.68;;;5.68;;
10269;SDS011;70826;50.930;5.334;2023-07-13T12:53:20;7.30;;;6.20;;
10269;SDS011;70826;50.930;5.334;2023-07-13T12:55:57;9.07;;;6.05;;
10269;SDS011;70826;50.930;5.334;2023-07-13T12:58:36;6.88;;;6.03;;
10269;SDS011;70826;50.930;5.334;2023-07-13T13:01:05;8.25;;;5.95;;
10269;SDS011;70826;50.930;5.334;2023-07-13T13:03:38;6.97;;;6.15;;
10269;SDS011;70826;50.930;5.334;2023-07-13T13:08:46;8.82;;;6.68;;
10269;SDS011;70826;50.930;5.334;2023-07-13T13:11:16;7.65;;;6.45;;
10269;SDS011;70826;50.930;5.334;2023-07-13T13:13:44;7.35;;;6.50;;
10269;SDS011;70826;50.930;5.334;2023-07-13T13:16:32;9.13;;;7.00;;
10269;SDS011;70826;50.930;5.334;2023-07-13T13:19:12;8.52;;;6.75;;
10269;SDS011;70826;50.930;5.334;2023-07-13T13:21:42;8.02;;;6.90;;
10269;SDS011;70826;50.930;5.334;2023-07-13T13:24:19;8.85;;;7.30;;
10269;SDS011;70826;50.930;5.334;2023-07-13T13:26:50;8.35;;;7.00;;
10269;SDS011;70826;50.930;5.334;2023-07-13T13:29:21;8.90;;;7.28;;
10269;SDS011;70826;50.930;5.334;2023-07-13T13:31:53;14.63;;;6.78;;
10269;SDS011;70826;50.930;5.334;2023-07-13T13:34:22;27.73;;;7.32;;
10269;SDS011;70826;50.930;5.334;2023-07-13T13:36:51;21.30;;;6.90;;
10269;SDS011;70826;50.930;5.334;2023-07-13T13:39:25;30.23;;;7.82;;
10269;SDS011;70826;50.930;5.334;2023-07-13T13:42:08;23.27;;;7.57;;
10269;SDS011;70826;50.930;5.334;2023-07-13T13:44:37;26.48;;;7.30;;
10269;SDS011;70826;50.930;5.334;2023-07-13T13:47:13;21.92;;;6.80;;
10269;SDS011;70826;50.930;5.334;2023-07-13T13:49:44;19.35;;;6.70;;
10269;SDS011;70826;50.930;5.334;2023-07-13T13:52:10;18.35;;;6.50;;
10269;SDS011;70826;50.930;5.334;2023-07-13T13:54:39;19.60;;;6.47;;
10269;SDS011;70826;50.930;5.334;2023-07-13T13:57:08;13.50;;;5.97;;
10269;SDS011;70826;50.930;5.334;2023-07-13T13:59:34;14.93;;;5.72;;
10269;SDS011;70826;50.930;5.334;2023-07-13T14:02:07;19.02;;;6.15;;
10269;SDS011;70826;50.930;5.334;2023-07-13T14:05:00;17.70;;;6.50;;
10269;SDS011;70826;50.930;5.334;2023-07-13T14:07:28;13.98;;;6.55;;
10269;SDS011;70826;50.930;5.334;2023-07-13T14:09:58;17.70;;;6.40;;
10269;SDS011;70826;50.930;5.334;2023-07-13T14:12:26;18.38;;;6.53;;
10269;SDS011;70826;50.930;5.334;2023-07-13T14:14:55;12.57;;;5.82;;
10269;SDS011;70826;50.930;5.334;2023-07-13T14:17:27;15.45;;;6.45;;
10269;SDS011;70826;50.930;5.334;2023-07-13T14:19:56;15.20;;;6.20;;
10269;SDS011;70826;50.930;5.334;2023-07-13T14:22:23;13.20;;;6.18;;
10269;SDS011;70826;50.930;5.334;2023-07-13T14:24:53;12.23;;;6.00;;
10269;SDS011;70826;50.930;5.334;2023-07-13T14:27:23;14.25;;;6.03;;
10269;SDS011;70826;50.930;5.334;2023-07-13T14:29:52;20.17;;;5.78;;
10269;SDS011;70826;50.930;5.334;2023-07-13T14:32:25;9.63;;;4.88;;
10269;SDS011;70826;50.930;5.334;2023-07-13T14:34:52;9.13;;;4.78;;
10269;SDS011;70826;50.930;5.334;2023-07-13T14:37:20;14.15;;;4.38;;
10269;SDS011;70826;50.930;5.334;2023-07-13T14:39:49;12.38;;;4.50;;
10269;SDS011;70826;50.930;5.334;2023-07-13T14:42:20;10.23;;;4.30;;
10269;SDS011;70826;50.930;5.334;2023-07-13T14:44:46;14.63;;;4.43;;
10269;SDS011;70826;50.930;5.334;2023-07-13T14:47:12;12.55;;;4.22;;
10269;SDS011;70826;50.930;5.334;2023-07-13T14:49:42;8.98;;;4.38;;
10269;SDS011;70826;50.930;5.334;2023-07-13T14:54:40;9.35;;;4.28;;
10269;SDS011;70826;50.930;5.334;2023-07-13T14:57:15;6.07;;;3.83;;
10269;SDS011;70826;50.930;5.334;2023-07-13T14:59:43;11.40;;;4.45;;
10269;SDS011;70826;50.930;5.334;2023-07-13T15:04:53;6.95;;;4.20;;
10269;SDS011;70826;50.930;5.334;2023-07-13T15:07:19;10.30;;;4.13;;
10269;SDS011;70826;50.930;5.334;2023-07-13T15:09:45;5.57;;;3.97;;
10269;SDS011;70826;50.930;5.334;2023-07-13T15:12:15;7.00;;;4.00;;
10269;SDS011;70826;50.930;5.334;2023-07-13T15:14:43;6.53;;;3.78;;
10269;SDS011;70826;50.930;5.334;2023-07-13T15:17:22;6.18;;;3.83;;
10269;SDS011;70826;50.930;5.334;2023-07-13T15:19:55;6.15;;;3.90;;
10269;SDS011;70826;50.930;5.334;2023-07-13T15:22:23;5.90;;;3.70;;
10269;SDS011;70826;50.930;5.334;2023-07-13T15:24:51;8.18;;;3.88;;
10269;SDS011;70826;50.930;5.334;2023-07-13T15:27:22;6.38;;;4.10;;
10269;SDS011;70826;50.930;5.334;2023-07-13T15:29:48;5.22;;;3.75;;
10269;SDS011;70826;50.930;5.334;2023-07-13T15:32:16;6.03;;;3.28;;
10269;SDS011;70826;50.930;5.334;2023-07-13T15:34:44;5.70;;;3.75;;
10269;SDS011;70826;50.930;5.334;2023-07-13T15:37:15;4.60;;;3.80;;
10269;SDS011;70826;50.930;5.334;2023-07-13T15:39:46;5.07;;;3.42;;
10269;SDS011;70826;50.930;5.334;2023-07-13T15:42:15;4.90;;;3.70;;
10269;SDS011;70826;50.930;5.334;2023-07-13T15:44:42;4.10;;;3.20;;
10269;SDS011;70826;50.930;5.334;2023-07-13T15:47:12;4.03;;;3.40;;